Time;durP1;ratioP1;P1;durP2;ratioP2;P2;SDS_P1;SDS_P2;PMS_P1;PMS_P2;Temp;Humidity;BMP_temperature;BMP_pressure;BME280_temperature;BME280_humidity;BME280_pressure;Samples;Min_cycle;Max_cycle;Signal;HPM_P1;HPM_P2
2022/01/21 03:22:12;;;;;;;76.72;3.05;;;4.60;38.00;;;;;;5074642;28;20610;-79
2022/01/21 03:24:38;;;;;;;134.60;4.68;;;;;;;;;;5069673;28;20674;-79
2022/01/21 03:27:05;;;;;;;40.17;2.05;;;;;;;;;;5054038;28;20686;-79
2022/01/21 03:29:31;;;;;;;38.47;2.05;;;;;;;;;;5054829;28;20176;-80
2022/01/21 03:31:57;;;;;;;67.65;2.85;;;;;;;;;;5053792;28;20215;-79
2022/01/21 03:34:23;;;;;;;43.25;2.38;;;;;;;;;;5055220;28;20258;-79
2022/01/21 03:36:49;;;;;;;79.05;3.30;;;;;;;;;;5055325;28;20175;-79
2022/01/21 03:39:16;;;;;;;30.35;1.77;;;6.10;34.30;;;;;;5053407;28;20184;-80
2022/01/21 03:41:43;;;;;;;28.55;1.80;;;;;;;;;;5055200;28;20172;-79
2022/01/21 03:44:09;;;;;;;65.95;3.42;;;;;;;;;;5052352;28;20871;-80
2022/01/21 03:46:35;;;;;;;53.25;3.58;;;;;;;;;;5053097;28;20168;-81
2022/01/21 03:49:03;;;;;;;65.72;3.05;;;;;;;;;;5051417;28;20176;-80
2022/01/21 03:51:29;;;;;;;42.45;2.10;;;;;;;;;;5051795;28;20279;-80
2022/01/21 03:53:55;;;;;;;59.30;2.78;;;5.50;35.20;;;;;;5044031;28;20171;-81
2022/01/21 03:56:21;;;;;;;44.50;2.10;;;;;;;;;;5050638;28;20200;-79
2022/01/21 03:58:47;;;;;;;41.45;2.20;;;;;;;;;;5051410;28;20622;-79
2022/01/21 04:01:13;;;;;;;61.67;2.67;;;;;;;;;;5050848;28;20184;-79
2022/01/21 04:03:39;;;;;;;44.85;2.17;;;;;;;;;;5051307;28;20180;-78
2022/01/21 04:06:05;;;;;;;172.98;5.25;;;;;;;;;;5042112;28;20219;-79
2022/01/21 04:08:32;;;;;;;37.13;1.90;;;;;;;;;;5050816;28;20183;-80
2022/01/21 04:10:58;;;;;;;60.35;2.67;;;;;;;;;;5050520;28;20211;-79
2022/01/21 04:13:26;;;;;;;32.90;2.03;;;;;;;;;;5050667;28;20180;-81
2022/01/21 04:15:52;;;;;;;57.17;2.60;;;;;;;;;;5050617;28;20188;-79
2022/01/21 04:18:19;;;;;;;46.70;2.30;;;4.10;40.30;;;;;;5041455;28;20195;-81
2022/01/21 04:20:46;;;;;;;50.40;2.25;;;;;;;;;;5050420;28;20554;-81
2022/01/21 04:23:12;;;;;;;72.63;2.70;;;;;;;;;;5050501;28;20450;-81
2022/01/21 04:25:39;;;;;;;45.67;2.10;;;3.60;41.60;;;;;;5049067;28;20204;-79
2022/01/21 04:28:05;;;;;;;65.63;2.70;;;3.80;41.30;;;;;;5049978;28;20204;-81
2022/01/21 04:30:31;;;;;;;47.97;2.25;;;4.30;40.50;;;;;;5050471;28;20208;-81
2022/01/21 04:32:56;;;;;;;47.70;2.27;;;4.60;38.70;;;;;;5040622;28;20173;-81
2022/01/21 04:35:22;;;;;;;90.93;3.40;;;4.50;38.60;;;;;;5036709;28;20529;-81
2022/01/21 04:37:58;;;;;;;71.07;2.67;;;;;;;;;;5036959;28;20169;-81
2022/01/21 04:40:28;;;;;;;84.72;2.97;;;;;;;;;;5037210;28;20263;-81
2022/01/21 04:48:24;;;;;;;60.13;2.80;;;3.40;42.90;;;;;;5036737;28;20323;-81
2022/01/21 04:50:56;;;;;;;55.77;2.33;;;3.40;42.80;;;;;;5038228;28;20231;-81
2022/01/21 04:53:22;;;;;;;90.13;3.05;;;;;;;;;;5037636;28;20439;-81
2022/01/21 04:55:49;;;;;;;54.65;2.38;;;;;;;;;;5036709;28;20193;-79
2022/01/21 04:58:15;;;;;;;55.35;2.35;;;;;;;;;;5032460;28;20172;-79
2022/01/21 05:00:41;;;;;;;37.63;1.90;;;;;;;;;;5037355;28;20737;-79
2022/01/21 05:03:07;;;;;;;65.82;2.80;;;;;;;;;;5035571;28;20181;-79
2022/01/21 05:05:33;;;;;;;77.15;2.88;;;;;;;;;;5037006;28;20234;-80
2022/01/21 05:08:04;;;;;;;93.35;3.22;;;;;;;;;;5036593;28;20173;-81
2022/01/21 05:10:30;;;;;;;84.47;3.08;;;4.30;40.50;;;;;;5033671;28;20183;-82
2022/01/21 05:12:55;;;;;;;79.70;3.20;;;4.60;38.80;;;;;;5034373;28;20185;-80
2022/01/21 05:15:29;;;;;;;50.07;2.03;;;;;;;;;;5036402;28;20208;-80
2022/01/21 05:17:55;;;;;;;73.93;2.80;;;;;;;;;;5036431;28;20250;-80
2022/01/21 05:20:22;;;;;;;65.57;2.55;;;;;;;;;;5036538;28;20208;-80
2022/01/21 05:22:48;;;;;;;64.47;2.58;;;5.90;34.90;;;;;;5035720;28;20200;-81
2022/01/21 05:25:18;;;;;;;81.67;3.17;;;;;;;;;;5035510;28;20204;-81
2022/01/21 05:27:50;;;;;;;10.50;2.63;;;5.80;34.80;;;;;;5068474;22;20250;-71
2022/01/21 05:30:17;;;;;;;12.32;3.00;;;6.00;34.90;;;;;;5042691;28;20195;-71
2022/01/21 05:32:42;;;;;;;16.33;3.17;;;6.10;34.40;;;;;;5032216;28;20235;-71
2022/01/21 05:35:08;;;;;;;13.30;2.40;;;6.00;34.70;;;;;;5032335;28;20200;-71
2022/01/21 05:37:35;;;;;;;11.10;2.23;;;6.30;33.70;;;;;;5042536;28;20207;-71
2022/01/21 05:40:04;;;;;;;12.25;2.28;;;6.40;33.30;;;;;;5049335;28;20924;-71
2022/01/21 05:42:33;;;;;;;10.98;2.10;;;6.20;33.60;;;;;;5051575;28;20180;-71
2022/01/21 05:47:24;;;;;;;13.37;2.20;;;5.40;35.60;;;;;;5051851;28;20599;-71
2022/01/21 05:49:50;;;;;;;13.80;2.37;;;5.20;36.40;;;;;;5051851;28;20441;-72
2022/01/21 05:52:17;;;;;;;15.60;2.60;;;5.30;36.70;;;;;;5051460;28;20179;-71
2022/01/21 05:54:45;;;;;;;10.23;2.05;;;5.40;36.70;;;;;;5044338;28;20595;-71
2022/01/21 05:57:13;;;;;;;13.20;2.47;;;5.40;36.40;;;;;;5034622;28;20199;-71
2022/01/21 05:59:40;;;;;;;10.45;1.98;;;5.40;36.90;;;;;;5051865;28;20199;-71
2022/01/21 06:02:07;;;;;;;14.90;2.70;;;5.50;36.20;;;;;;5051275;28;20208;-71
2022/01/21 06:04:33;;;;;;;11.13;2.00;;;5.40;36.30;;;;;;5051599;28;20195;-71
2022/01/21 06:07:00;;;;;;;16.50;3.10;;;5.10;36.80;;;;;;5050962;28;20681;-71
2022/01/21 06:09:27;;;;;;;15.40;2.15;;;5.00;37.70;;;;;;5051812;28;20653;-71
2022/01/21 06:11:53;;;;;;;13.82;2.17;;;5.60;36.60;;;;;;5051344;28;20183;-71
2022/01/21 06:14:18;;;;;;;11.60;2.00;;;6.00;34.50;;;;;;5050996;28;20221;-71
2022/01/21 06:16:44;;;;;;;20.20;2.90;;;6.20;34.70;;;;;;5050964;28;20199;-71
2022/01/21 06:19:10;;;;;;;21.37;3.23;;;6.20;34.80;;;;;;5051270;28;20271;-71
2022/01/21 06:21:35;;;;;;;20.03;2.60;;;6.00;36.00;;;;;;5050401;28;20227;-71
2022/01/21 06:24:01;;;;;;;18.67;2.67;;;6.20;34.40;;;;;;5051211;28;20172;-71
2022/01/21 06:26:27;;;;;;;17.57;2.40;;;6.30;34.00;;;;;;5050826;28;20210;-71
2022/01/21 06:28:52;;;;;;;13.00;2.30;;;6.40;33.40;;;;;;5051234;28;20221;-71
2022/01/21 06:31:18;;;;;;;17.50;2.60;;;6.70;32.70;;;;;;5051068;28;20171;-71
2022/01/21 06:33:44;;;;;;;15.10;2.30;;;6.80;33.00;;;;;;5040131;28;20230;-71
2022/01/21 06:36:09;;;;;;;30.90;4.70;;;6.20;33.30;;;;;;5042012;28;20651;-71
2022/01/21 06:38:35;;;;;;;17.27;2.30;;;5.30;35.20;;;;;;5043355;28;20576;-71
2022/01/21 06:41:02;;;;;;;21.00;2.35;;;4.90;36.90;;;;;;5050489;28;20200;-71
2022/01/21 06:43:28;;;;;;;22.02;3.22;;;5.20;36.90;;;;;;5053365;28;20180;-71
2022/01/21 06:45:54;;;;;;;17.77;2.27;;;5.80;35.30;;;;;;5044384;28;20173;-71
2022/01/21 06:48:20;;;;;;;18.80;2.53;;;6.00;34.30;;;;;;5042468;28;20781;-71
2022/01/21 06:50:46;;;;;;;21.60;2.50;;;6.00;34.50;;;;;;5042795;28;20552;-72
2022/01/21 06:53:11;;;;;;;13.87;1.83;;;6.20;33.80;;;;;;5046197;28;20175;-71
2022/01/21 06:55:37;;;;;;;33.30;3.20;;;6.30;33.00;;;;;;5048615;28;20172;-71
2022/01/21 06:58:06;;;;;;;28.43;3.90;;;6.10;33.60;;;;;;5050278;28;20218;-72
2022/01/21 07:00:32;;;;;;;29.80;2.88;;;6.20;33.20;;;;;;5050293;28;20235;-71
2022/01/21 07:02:58;;;;;;;28.25;2.83;;;6.10;33.50;;;;;;5043157;28;20184;-72
2022/01/21 07:05:29;;;;;;;19.77;2.30;;;6.20;33.20;;;;;;5051177;28;20255;-72
2022/01/21 07:07:56;;;;;;;28.52;2.72;;;5.90;34.10;;;;;;5047133;28;20223;-72
2022/01/21 07:10:22;;;;;;;21.83;2.13;;;5.90;34.70;;;;;;5049616;28;20598;-72
2022/01/21 07:12:47;;;;;;;36.03;3.23;;;5.70;35.00;;;;;;5049946;28;20188;-71
2022/01/21 07:15:19;;;;;;;21.37;2.17;;;5.40;35.70;;;;;;5050292;28;20176;-71
2022/01/21 07:17:46;;;;;;;29.52;3.15;;;5.20;35.90;;;;;;5046525;28;20290;-71
2022/01/21 07:20:12;;;;;;;18.88;2.35;;;4.70;36.90;;;;;;5042448;28;20204;-71
2022/01/21 07:22:38;;;;;;;34.30;3.22;;;4.50;38.40;;;;;;5048672;28;20198;-72
2022/01/21 07:25:04;;;;;;;25.17;2.50;;;4.40;39.00;;;;;;5050423;28;20175;-72
2022/01/21 07:27:30;;;;;;;30.75;3.00;;;5.00;37.20;;;;;;5048140;28;20462;-72
2022/01/21 07:29:56;;;;;;;22.70;2.50;;;5.30;36.20;;;;;;5050196;28;20183;-73
2022/01/21 07:32:21;;;;;;;22.40;2.20;;;5.50;35.80;;;;;;5044116;28;20176;-72
2022/01/21 07:34:47;;;;;;;24.43;2.70;;;5.10;36.50;;;;;;5048230;28;20180;-71
2022/01/21 07:37:13;;;;;;;38.07;3.50;;;4.90;37.10;;;;;;5049827;28;20626;-72
2022/01/21 07:39:38;;;;;;;21.33;2.80;;;4.30;39.10;;;;;;5050827;28;20261;-71
2022/01/21 07:42:05;;;;;;;29.93;2.73;;;4.10;40.20;;;;;;5047129;28;20207;-72
2022/01/21 07:44:31;;;;;;;21.50;2.03;;;4.70;39.30;;;;;;5046005;28;20164;-72
2022/01/21 07:46:56;;;;;;;26.37;2.63;;;4.80;38.20;;;;;;5049652;28;20675;-72
2022/01/21 07:49:22;;;;;;;30.30;2.60;;;5.10;38.00;;;;;;5045562;28;20176;-72
2022/01/21 07:51:48;;;;;;;33.90;2.70;;;5.20;37.20;;;;;;5047637;28;20683;-72
2022/01/21 07:54:13;;;;;;;30.77;2.67;;;4.20;39.50;;;;;;5049934;28;20639;-72
2022/01/21 07:56:40;;;;;;;22.30;2.43;;;4.30;39.70;;;;;;5050270;28;20246;-72
2022/01/21 07:59:09;;;;;;;44.03;3.65;;;4.70;38.70;;;;;;5040902;28;20460;-72
2022/01/21 08:01:35;;;;;;;36.58;2.80;;;4.50;39.10;;;;;;5047528;28;20200;-72
2022/01/21 08:04:01;;;;;;;21.80;2.25;;;4.50;39.30;;;;;;5065318;28;20199;-72
2022/01/21 08:06:27;;;;;;;31.98;2.35;;;4.30;39.70;;;;;;5043661;28;20212;-72
2022/01/21 08:08:57;;;;;;;20.90;2.10;;;4.30;40.40;;;;;;5050110;28;20208;-72
2022/01/21 08:11:23;;;;;;;37.70;3.72;;;4.90;37.70;;;;;;5037679;28;20291;-72
2022/01/21 08:13:49;;;;;;;24.95;2.47;;;4.70;37.70;;;;;;5049889;28;20187;-72
2022/01/21 08:16:16;;;;;;;31.13;3.05;;;4.80;38.40;;;;;;5046245;28;20196;-72
2022/01/21 08:18:42;;;;;;;27.92;2.45;;;4.90;39.10;;;;;;5054367;28;20722;-82
2022/01/21 08:21:08;;;;;;;33.33;3.05;;;5.60;36.30;;;;;;5052006;28;20193;-77
2022/01/21 08:23:34;;;;;;;26.73;2.33;;;6.10;35.30;;;;;;5050200;28;20177;-77
2022/01/21 08:26:00;;;;;;;37.00;2.73;;;5.50;35.70;;;;;;5053437;28;20422;-77
2022/01/21 08:28:25;;;;;;;23.87;2.20;;;5.40;36.10;;;;;;5042679;28;20214;-77
2022/01/21 08:30:51;;;;;;;21.57;2.10;;;5.30;36.00;;;;;;5055154;28;20557;-76
2022/01/21 08:33:17;;;;;;;47.57;3.60;;;4.60;37.80;;;;;;5044850;28;20314;-77
2022/01/21 08:35:42;;;;;;;38.80;3.50;;;4.90;38.20;;;;;;5048785;28;20259;-77
2022/01/21 08:38:08;;;;;;;27.47;2.40;;;5.30;36.50;;;;;;5051639;28;20200;-77
2022/01/21 08:40:34;;;;;;;19.17;1.77;;;5.70;35.60;;;;;;5052963;28;20281;-77
2022/01/21 08:43:00;;;;;;;37.72;2.80;;;5.80;34.30;;;;;;5059884;28;20752;-77
2022/01/21 08:45:26;;;;;;;33.30;2.43;;;5.50;34.90;;;;;;5053279;28;20183;-76
2022/01/21 08:47:52;;;;;;;28.42;2.15;;;4.80;36.90;;;;;;5057539;28;20250;-77
2022/01/21 08:50:20;;;;;;;26.27;1.93;;;5.50;35.60;;;;;;5057838;28;20215;-77
2022/01/21 08:52:47;;;;;;;29.17;2.25;;;;;;;;;;5054075;28;20175;-77
2022/01/21 08:55:16;;;;;;;23.02;2.03;;;5.50;35.20;;;;;;5054276;28;20196;-77
2022/01/21 08:57:44;;;;;;;40.65;3.35;;;4.70;36.60;;;;;;5050119;28;20291;-76
2022/01/21 09:00:19;;;;;;;42.35;3.22;;;4.80;37.20;;;;;;5053199;28;20180;-71
2022/01/21 09:02:46;;;;;;;34.35;2.50;;;4.50;37.60;;;;;;5041390;28;20172;-71
2022/01/21 09:05:12;;;;;;;31.23;2.08;;;5.20;36.20;;;;;;5048539;28;20636;-72
2022/01/21 09:07:38;;;;;;;35.20;2.50;;;4.70;36.60;;;;;;5051850;28;20975;-71
2022/01/21 09:10:06;;;;;;;24.70;2.17;;;4.60;37.90;;;;;;5052502;28;20207;-71
2022/01/21 09:12:32;;;;;;;31.33;2.78;;;4.20;39.10;;;;;;5050709;28;20461;-71
2022/01/21 09:14:58;;;;;;;34.42;2.60;;;4.20;40.00;;;;;;5044919;28;20615;-71
2022/01/21 09:17:24;;;;;;;23.25;2.28;;;5.00;38.30;;;;;;5052108;28;20195;-71
2022/01/21 09:19:50;;;;;;;40.03;2.93;;;5.20;36.50;;;;;;5049103;28;20198;-71
2022/01/21 09:22:15;;;;;;;27.53;2.13;;;5.30;36.00;;;;;;5043642;28;20176;-72
2022/01/21 09:24:41;;;;;;;42.53;2.93;;;4.90;36.90;;;;;;5050619;28;20180;-72
2022/01/21 09:27:07;;;;;;;34.33;2.47;;;5.00;36.20;;;;;;5050400;28;20972;-72
2022/01/21 09:29:34;;;;;;;31.90;2.53;;;5.10;36.00;;;;;;5049438;28;20172;-72
2022/01/21 09:32:01;;;;;;;26.58;2.13;;;5.10;35.60;;;;;;5042269;28;20200;-71
2022/01/21 09:34:28;;;;;;;26.70;2.42;;;5.00;36.30;;;;;;5042814;28;20172;-72
2022/01/21 09:36:55;;;;;;;31.33;3.20;;;5.00;36.60;;;;;;5050816;28;20204;-72
2022/01/21 09:39:22;;;;;;;32.67;2.33;;;5.00;35.60;;;;;;5050298;28;20677;-71
2022/01/21 09:41:48;;;;;;;39.60;2.70;;;4.40;38.10;;;;;;5048622;28;20237;-72
2022/01/21 09:44:17;;;;;;;22.85;1.95;;;4.30;38.50;;;;;;5051231;28;20271;-72
2022/01/21 09:46:46;;;;;;;24.13;2.10;;;4.50;38.50;;;;;;5051177;28;20587;-72
2022/01/21 09:51:54;;;;;;;59.85;4.40;;;4.20;40.50;;;;;;5047529;28;20204;-72
2022/01/21 09:54:22;;;;;;;30.27;2.58;;;5.00;38.10;;;;;;5047923;28;20176;-71
2022/01/21 09:56:49;;;;;;;68.57;3.88;;;5.50;36.00;;;;;;5051444;28;20763;-70
2022/01/21 09:59:21;;;;;;;33.15;2.25;;;5.00;37.50;;;;;;5050369;28;20176;-71
2022/01/21 10:01:55;;;;;;;43.35;3.58;;;5.20;36.40;;;;;;5039775;28;20183;-70
2022/01/21 10:04:25;;;;;;;49.05;2.85;;;;;;;;;;5044648;28;20164;-70
2022/01/21 10:06:51;;;;;;;49.97;3.10;;;4.80;36.50;;;;;;5038614;28;20200;-70
2022/01/21 10:09:21;;;;;;;54.97;3.30;;;4.40;38.60;;;;;;5048303;28;20392;-70
2022/01/21 10:11:49;;;;;;;32.00;2.38;;;5.00;36.60;;;;;;5049992;28;20207;-70
2022/01/21 10:14:16;;;;;;;33.58;2.90;;;;;;;;;;5065369;28;20566;-70
2022/01/21 10:16:43;;;;;;;29.45;2.25;;;;;;;;;;5049103;28;20234;-71
2022/01/21 10:19:11;;;;;;;43.03;2.83;;;5.50;34.70;;;;;;5066452;28;20187;-70
2022/01/21 10:21:39;;;;;;;37.70;2.95;;;5.10;36.40;;;;;;5049290;28;20238;-70
2022/01/21 10:24:10;;;;;;;19.98;1.83;;;5.60;35.60;;;;;;5049754;28;20651;-70
2022/01/21 10:26:53;;;;;;;31.52;2.33;;;6.20;33.30;;;;;;5042930;28;20215;-70
2022/01/21 10:29:21;;;;;;;41.72;3.03;;;4.90;36.00;;;;;;5045957;28;20189;-70
2022/01/21 10:31:55;;;;;;;46.17;3.03;;;5.30;37.00;;;;;;5047356;28;20211;-70
2022/01/21 10:34:41;;;;;;;34.88;2.25;;;6.00;34.50;;;;;;5047219;28;20172;-70
2022/01/21 10:37:30;;;;;;;20.50;1.83;;;5.20;35.40;;;;;;5048624;28;20671;-70
2022/01/21 10:40:10;;;;;;;39.95;2.58;;;5.40;34.90;;;;;;5050507;28;20175;-71
2022/01/21 10:42:36;;;;;;;35.05;2.72;;;5.20;34.70;;;;;;5032631;28;20176;-70
2022/01/21 10:45:05;;;;;;;29.55;2.40;;;5.60;34.00;;;;;;5036231;28;20180;-70
2022/01/21 10:47:33;;;;;;;29.10;2.30;;;6.30;32.70;;;;;;5044216;28;20197;-71
2022/01/21 10:50:06;;;;;;;32.75;3.22;;;6.80;31.70;;;;;;5047724;28;20548;-71
2022/01/21 10:52:38;;;;;;;43.35;2.88;;;7.20;30.70;;;;;;5049342;28;20176;-71
2022/01/21 10:55:26;;;;;;;27.83;2.10;;;7.00;30.20;;;;;;5042987;28;20173;-71
2022/01/21 10:58:07;;;;;;;29.55;2.80;;;7.30;29.90;;;;;;5044529;28;20188;-71
2022/01/21 11:00:33;;;;;;;48.45;4.28;;;7.20;29.50;;;;;;5048531;28;20199;-71
2022/01/21 11:03:15;;;;;;;29.40;2.27;;;7.10;29.10;;;;;;5050079;28;20236;-71
2022/01/21 11:05:46;;;;;;;53.72;3.28;;;5.20;32.70;;;;;;5047802;28;20417;-70
2022/01/21 11:08:14;;;;;;;48.95;2.85;;;;;;;;;;5048551;28;20195;-70
2022/01/21 11:10:42;;;;;;;54.72;3.60;;;5.50;32.20;;;;;;5045610;28;20203;-70
2022/01/21 11:13:11;;;;;;;35.90;3.38;;;5.40;33.40;;;;;;5044492;28;20211;-71
2022/01/21 11:15:50;;;;;;;77.93;3.78;;;5.30;34.00;;;;;;5050003;28;20215;-70
2022/01/21 11:18:19;;;;;;;22.95;1.80;;;5.60;33.60;;;;;;5046281;28;20651;-70
2022/01/21 11:20:48;;;;;;;33.15;4.13;;;;;;;;;;5051237;28;20187;-70
2022/01/21 11:23:16;;;;;;;20.45;2.65;;;6.30;32.60;;;;;;5072628;28;20183;-70
2022/01/21 11:26:03;;;;;;;31.10;2.55;;;6.30;31.70;;;;;;5057903;28;20210;-71
2022/01/21 11:28:41;;;;;;;130.90;3.75;;;;;;;;;;5079034;22;20315;-73
2022/01/21 11:31:08;;;;;;;97.20;3.65;;;;;;;;;;4993203;28;20206;-72
2022/01/21 11:33:35;;;;;;;83.85;3.05;;;;;;;;;;4993625;28;20240;-72
2022/01/21 11:36:01;;;;;;;160.40;4.85;;;;;;;;;;4997353;28;20186;-73
2022/01/21 11:38:28;;;;;;;61.95;2.65;;;;;;;;;;5007494;28;20228;-73
2022/01/21 11:40:55;;;;;;;48.28;2.28;;;5.90;32.00;;;;;;5019982;28;20216;-72
2022/01/21 11:43:21;;;;;;;59.42;2.50;;;;;;;;;;5016098;28;20275;-72
2022/01/21 11:50:51;;;;;;;91.93;3.45;;;5.20;34.20;;;;;;5026099;28;20243;-73
2022/01/21 11:53:44;;;;;;;97.20;3.42;;;5.00;35.10;;;;;;5012000;28;20172;-73
2022/01/21 11:56:33;;;;;;;171.10;5.10;;;5.40;35.40;;;;;;5021936;28;20181;-73
2022/01/21 11:59:09;;;;;;;69.85;2.90;;;;;;;;;;5016911;28;20200;-74
2022/01/21 12:01:47;;;;;;;137.70;4.05;;;6.10;33.30;;;;;;5016361;28;20208;-73
2022/01/21 12:04:13;;;;;;;85.13;3.00;;;;;;;;;;5025888;28;20185;-73
2022/01/21 12:06:39;;;;;;;70.88;2.92;;;;;;;;;;5032297;28;20176;-74
2022/01/21 12:09:08;;;;;;;75.20;3.28;;;;;;;;;;5026415;28;20193;-74
2022/01/21 12:11:38;;;;;;;94.10;3.83;;;;;;;;;;5027337;28;20200;-74
2022/01/21 12:14:25;;;;;;;73.93;2.85;;;;;;;;;;5028283;28;20165;-73
2022/01/21 12:17:11;;;;;;;64.88;2.65;;;;;;;;;;5020297;28;20253;-73
2022/01/21 12:19:40;;;;;;;64.32;2.72;;;5.60;34.20;;;;;;5011923;28;20173;-74
2022/01/21 12:22:17;;;;;;;59.00;2.55;;;5.90;33.80;;;;;;5028409;28;20184;-73
2022/01/21 12:24:48;;;;;;;59.25;2.97;;;;;;;;;;5015656;28;20191;-74
2022/01/21 12:27:14;;;;;;;70.47;2.70;;;;;;;;;;5015602;28;20252;-71
2022/01/21 12:29:40;;;;;;;62.80;2.75;;;;;;;;;;5014418;28;20193;-74
2022/01/21 12:32:16;;;;;;;77.78;2.85;;;;;;;;;;5020266;28;20747;-74
2022/01/21 12:35:01;;;;;;;81.93;2.90;;;;;;;;;;5018207;28;20821;-74
2022/01/21 12:37:39;;;;;;;91.40;3.15;;;;;;;;;;5012543;28;20212;-74
2022/01/21 12:40:06;;;;;;;75.07;2.95;;;;;;;;;;5011742;28;20173;-74
2022/01/21 12:42:35;;;;;;;128.65;4.63;;;;;;;;;;5021511;28;20232;-73
2022/01/21 12:45:07;;;;;;;41.28;2.05;;;;;;;;;;5014748;28;20555;-74
2022/01/21 12:47:33;;;;;;;52.45;2.63;;;6.40;30.50;;;;;;5011303;28;20231;-74
2022/01/21 12:50:07;;;;;;;60.40;2.57;;;;;;;;;;5027304;28;20201;-74
2022/01/21 12:52:45;;;;;;;47.95;2.15;;;;;;;;;;5012681;28;20423;-73
2022/01/21 12:55:56;;;;;;;69.55;2.90;;;5.90;32.30;;;;;;5022083;28;20259;-74
2022/01/21 12:58:39;;;;;;;88.65;3.42;;;5.50;32.60;;;;;;5011055;28;20219;-74
2022/01/21 13:01:12;;;;;;;38.92;2.15;;;;;;;;;;5012349;28;20192;-74
2022/01/21 13:03:45;;;;;;;71.60;2.70;;;;;;;;;;5024924;28;20589;-74
2022/01/21 13:06:11;;;;;;;149.95;4.85;;;;;;;;;;5021609;28;20195;-75
2022/01/21 13:08:58;;;;;;;85.70;3.00;;;6.70;31.20;;;;;;5021287;28;20562;-74
2022/01/21 13:11:25;;;;;;;119.03;4.55;;;6.20;32.20;;;;;;5013842;28;20534;-74
2022/01/21 13:17:01;;;;;;;87.05;3.20;;;;;;;;;;5016789;28;20288;-74
2022/01/21 13:19:28;;;;;;;89.05;3.10;;;;;;;;;;5023629;28;20201;-74
2022/01/21 13:21:54;;;;;;;52.13;2.63;;;;;;;;;;5004849;28;20177;-74
2022/01/21 13:24:31;;;;;;;96.53;3.30;;;;;;;;;;5020417;28;20208;-75
2022/01/21 13:26:58;;;;;;;45.67;2.13;;;6.80;31.10;;;;;;5012454;28;20264;-75
2022/01/21 13:29:32;;;;;;;89.10;4.43;;;;;;;;;;5020392;28;20270;-74
2022/01/21 13:32:00;;;;;;;83.15;3.28;;;7.00;30.20;;;;;;5013570;28;20203;-74
2022/01/21 13:34:28;;;;;;;96.47;3.97;;;;;;;;;;5011978;28;20232;-74
2022/01/21 13:36:54;;;;;;;84.50;4.00;;;;;;;;;;5017842;28;20207;-74
2022/01/21 13:39:23;;;;;;;60.65;2.50;;;;;;;;;;5013684;28;20752;-74
2022/01/21 13:41:58;;;;;;;54.38;2.30;;;;;;;;;;5017080;28;20180;-74
2022/01/21 13:44:28;;;;;;;61.33;2.85;;;;;;;;;;5015549;28;20208;-74
2022/01/21 13:46:56;;;;;;;60.55;2.63;;;;;;;;;;5013364;28;20173;-74
2022/01/21 13:49:23;;;;;;;78.75;3.25;;;;;;;;;;5017750;28;20256;-74
2022/01/21 13:51:53;;;;;;;60.45;2.40;;;6.60;30.00;;;;;;5024141;28;20546;-73
2022/01/21 13:54:27;;;;;;;56.20;2.40;;;;;;;;;;5017226;28;20178;-74
2022/01/21 13:56:53;;;;;;;69.43;2.85;;;;;;;;;;5019365;28;20173;-75
2022/01/21 13:59:19;;;;;;;44.05;2.20;;;6.80;30.00;;;;;;5013070;28;20567;-74
2022/01/21 14:01:45;;;;;;;81.33;2.93;;;;;;;;;;4997541;28;20196;-73
2022/01/21 14:04:11;;;;;;;60.27;2.30;;;;;;;;;;5022397;28;20231;-72
2022/01/21 14:06:37;;;;;;;113.47;4.18;;;;;;;;;;5021146;28;20424;-72
2022/01/21 14:09:04;;;;;;;74.90;2.97;;;5.80;31.70;;;;;;5015191;28;20197;-73
2022/01/21 14:11:45;;;;;;;75.18;2.63;;;;;;;;;;5022031;28;20564;-73
2022/01/21 14:14:11;;;;;;;126.22;3.85;;;;;;;;;;4999545;28;20172;-73
2022/01/21 14:16:46;;;;;;;80.43;2.85;;;;;;;;;;5018726;28;20707;-74
2022/01/21 14:19:14;;;;;;;41.00;2.05;;;;;;;;;;5017553;28;20189;-73
2022/01/21 14:21:41;;;;;;;91.07;3.10;;;;;;;;;;5013380;28;20188;-74
2022/01/21 14:24:18;;;;;;;63.38;2.47;;;5.30;32.80;;;;;;5016286;28;20652;-73
2022/01/21 14:26:50;;;;;;;100.65;3.53;;;;;;;;;;5013175;28;20196;-73
2022/01/21 14:29:29;;;;;;;59.30;2.30;;;4.70;38.10;;;;;;5019482;28;20237;-73
2022/01/21 14:31:55;;;;;;;70.78;2.70;;;4.40;41.30;;;;;;5015849;28;20199;-73
2022/01/21 14:34:27;;;;;;;90.15;4.35;;;4.00;43.10;;;;;;5008250;28;20162;-72
2022/01/21 14:37:06;;;;;;;72.70;2.67;;;;;;;;;;5023127;28;20186;-73
2022/01/21 14:39:34;;;;;;;78.28;2.83;;;;;;;;;;5008311;28;20264;-73
2022/01/21 14:42:00;;;;;;;18.45;1.63;;;;;;;;;;5001160;28;20174;-74
2022/01/21 14:44:33;;;;;;;119.05;3.60;;;;;;;;;;5017912;28;20737;-72
2022/01/21 14:47:12;;;;;;;61.50;2.40;;;;;;;;;;5015981;28;20192;-72
2022/01/21 14:49:39;;;;;;;153.13;4.63;;;;;;;;;;5011482;28;20208;-76
2022/01/21 14:54:50;;;;;;;84.35;2.92;;;5.70;38.40;;;;;;5011781;28;20189;-73
2022/01/21 14:57:16;;;;;;;41.80;2.05;;;5.00;40.70;;;;;;5015872;28;20541;-73
2022/01/21 14:59:55;;;;;;;97.20;3.73;;;;;;;;;;5015598;28;20188;-74
2022/01/21 15:02:31;;;;;;;61.85;2.50;;;;;;;;;;5020243;28;20173;-73
2022/01/21 15:04:58;;;;;;;72.35;2.80;;;6.50;36.60;;;;;;5009575;28;20267;-73
2022/01/21 15:07:26;;;;;;;46.85;2.08;;;6.60;35.50;;;;;;5018383;28;20203;-73
2022/01/21 15:09:59;;;;;;;48.67;2.53;;;6.80;34.50;;;;;;5017750;28;20310;-73
2022/01/21 15:15:44;;;;;;;52.42;2.30;;;;;;;;;;4957963;28;20183;-73
2022/01/21 15:18:13;;;;;;;125.93;3.95;;;;;;;;;;4965458;28;20206;-73
2022/01/21 15:20:39;;;;;;;96.78;3.35;;;;;;;;;;4959827;28;20632;-75
2022/01/21 15:23:06;;;;;;;118.53;3.85;;;;;;;;;;4965432;28;20191;-76
2022/01/21 15:25:33;;;;;;;63.15;2.83;;;;;;;;;;4968796;28;20781;-74
2022/01/21 15:27:59;;;;;;;60.58;2.40;;;;;;;;;;4969350;28;20218;-73
2022/01/21 15:30:26;;;;;;;53.67;3.10;;;7.00;33.20;;;;;;4950796;28;20191;-72
2022/01/21 15:32:53;;;;;;;113.57;3.70;;;;;;;;;;4967374;28;20206;-72
2022/01/21 15:35:19;;;;;;;60.38;2.53;;;7.20;33.10;;;;;;4967581;28;20231;-72
2022/01/21 15:37:45;;;;;;;95.80;3.30;;;;;;;;;;4962879;28;20618;-72
2022/01/21 15:40:11;;;;;;;44.30;2.15;;;;;;;;;;4968163;28;20492;-73
2022/01/21 15:42:38;;;;;;;67.22;4.63;;;;;;;;;;4968556;28;20186;-75
2022/01/21 15:45:04;;;;;;;85.68;4.38;;;7.40;32.40;;;;;;4962922;28;20214;-75
2022/01/21 15:47:30;;;;;;;63.97;2.65;;;;;;;;;;5004367;28;20284;-73
2022/01/21 15:49:56;;;;;;;66.13;2.67;;;6.80;32.80;;;;;;5018938;28;20263;-73
2022/01/21 15:52:24;;;;;;;69.97;2.93;;;;;;;;;;5022648;28;20291;-75
2022/01/21 15:54:50;;;;;;;47.50;2.70;;;;;;;;;;5022726;28;21078;-72
2022/01/21 15:57:16;;;;;;;89.07;3.33;;;;;;;;;;5010755;28;20187;-72
2022/01/21 15:59:42;;;;;;;82.93;3.10;;;;;;;;;;5022577;28;20177;-73
2022/01/21 16:02:08;;;;;;;177.82;5.20;;;;;;;;;;5011725;28;20185;-73
2022/01/21 16:04:34;;;;;;;77.13;2.80;;;;;;;;;;5020583;28;20180;-73
2022/01/21 16:07:00;;;;;;;66.13;2.83;;;;;;;;;;5012490;28;20649;-75
2022/01/21 16:09:26;;;;;;;53.67;2.45;;;;;;;;;;5020125;28;20211;-73
2022/01/21 16:11:53;;;;;;;93.57;3.10;;;;;;;;;;5014635;28;20201;-73
2022/01/21 16:14:19;;;;;;;42.03;2.05;;;;;;;;;;5020710;28;20185;-73
2022/01/21 16:16:46;;;;;;;74.10;2.60;;;6.40;32.90;;;;;;5015917;28;20719;-73
2022/01/21 16:19:15;;;;;;;67.20;3.08;;;;;;;;;;5024263;28;20220;-73
2022/01/21 16:21:43;;;;;;;111.75;4.43;;;6.80;32.50;;;;;;5022971;28;20534;-74
2022/01/21 16:24:10;;;;;;;44.35;2.22;;;6.90;31.60;;;;;;5018668;28;20180;-74
2022/01/21 16:26:37;;;;;;;66.65;3.00;;;6.60;32.70;;;;;;5002329;28;20176;-73
2022/01/21 16:29:04;;;;;;;43.55;2.75;;;6.60;32.50;;;;;;5020116;28;20216;-73
2022/01/21 16:31:30;;;;;;;53.83;2.25;;;6.90;32.10;;;;;;5015707;28;20201;-74
2022/01/21 16:33:56;;;;;;;50.30;2.33;;;7.00;31.90;;;;;;5014829;28;20190;-74
2022/01/21 16:36:22;;;;;;;75.33;3.40;;;;;;;;;;5003780;28;20177;-74
2022/01/21 16:38:48;;;;;;;67.68;3.35;;;7.50;30.60;;;;;;5014347;28;20236;-75
2022/01/21 16:41:16;;;;;;;54.60;3.63;;;;;;;;;;5028853;28;20690;-73
2022/01/21 16:43:42;;;;;;;61.58;2.60;;;7.50;29.80;;;;;;5033946;28;20604;-74
2022/01/21 16:46:08;;;;;;;90.65;3.17;;;6.50;31.30;;;;;;5033659;28;20256;-73
2022/01/21 16:48:34;;;;;;;92.25;3.28;;;6.60;31.80;;;;;;5033777;28;20664;-73
2022/01/21 16:51:00;;;;;;;62.50;2.50;;;;;;;;;;5031980;28;20240;-75
2022/01/21 16:53:27;;;;;;;70.70;2.53;;;7.20;30.30;;;;;;5024815;28;20227;-76
2022/01/21 16:55:54;;;;;;;54.42;2.50;;;7.30;30.10;;;;;;5007499;28;20462;-73
2022/01/21 16:58:20;;;;;;;50.47;2.45;;;;;;;;;;5032444;28;20566;-73
2022/01/21 17:00:46;;;;;;;72.70;2.95;;;;;;;;;;5021956;28;20189;-74
2022/01/21 17:03:17;;;;;;;46.47;2.00;;;;;;;;;;5010360;28;20208;-75
2022/01/21 17:05:44;;;;;;;92.78;3.22;;;6.10;32.60;;;;;;5032496;28;20636;-73
2022/01/21 17:08:09;;;;;;;43.80;2.13;;;6.40;31.80;;;;;;5019171;28;20216;-73
2022/01/21 17:10:35;;;;;;;79.93;4.80;;;6.20;32.40;;;;;;5022154;28;20202;-73
2022/01/21 17:13:01;;;;;;;27.97;2.03;;;;;;;;;;5027984;28;20679;-73
2022/01/21 17:15:27;;;;;;;63.37;2.63;;;;;;;;;;5021784;28;20448;-75
2022/01/21 17:17:55;;;;;;;43.10;2.20;;;6.60;31.70;;;;;;5016137;28;20854;-73